sensor_id;sensor_type;location;lat;lon;timestamp;temperature;humidity
9998;DHT22;5038;53.064;8.624;2023-07-31T00:01:07;16.90;99.90
9998;DHT22;5038;53.064;8.624;2023-07-31T00:03:35;16.90;99.90
9998;DHT22;5038;53.064;8.624;2023-07-31T00:06:03;16.90;99.90
9998;DHT22;5038;53.064;8.624;2023-07-31T00:08:31;16.90;99.90
9998;DHT22;5038;53.064;8.624;2023-07-31T00:10:59;16.90;99.90
9998;DHT22;5038;53.064;8.624;2023-07-31T00:13:28;16.90;99.90
9998;DHT22;5038;53.064;8.624;2023-07-31T00:15:57;17.00;99.90
9998;DHT22;5038;53.064;8.624;2023-07-31T00:18:25;17.00;99.90
9998;DHT22;5038;53.064;8.624;2023-07-31T00:20:53;17.00;99.90
9998;DHT22;5038;53.064;8.624;2023-07-31T00:23:22;17.00;99.90
9998;DHT22;5038;53.064;8.624;2023-07-31T00:25:50;16.90;99.90
9998;DHT22;5038;53.064;8.624;2023-07-31T00:28:18;16.90;99.90
9998;DHT22;5038;53.064;8.624;2023-07-31T00:30:46;16.90;99.90
9998;DHT22;5038;53.064;8.624;2023-07-31T00:33:16;17.00;99.90
9998;DHT22;5038;53.064;8.624;2023-07-31T00:35:44;17.00;99.90
9998;DHT22;5038;53.064;8.624;2023-07-31T00:38:12;17.00;99.90
9998;DHT22;5038;53.064;8.624;2023-07-31T00:40:40;17.00;99.90
9998;DHT22;5038;53.064;8.624;2023-07-31T00:43:08;17.00;99.90
9998;DHT22;5038;53.064;8.624;2023-07-31T00:45:36;17.00;99.90
9998;DHT22;5038;53.064;8.624;2023-07-31T00:48:05;17.00;99.90
9998;DHT22;5038;53.064;8.624;2023-07-31T00:50:35;16.90;99.90
9998;DHT22;5038;53.064;8.624;2023-07-31T00:53:04;16.90;99.90
9998;DHT22;5038;53.064;8.624;2023-07-31T00:55:33;16.90;99.90
9998;DHT22;5038;53.064;8.624;2023-07-31T00:58:01;16.90;99.90
9998;DHT22;5038;53.064;8.624;2023-07-31T01:00:29;16.90;99.90
9998;DHT22;5038;53.064;8.624;2023-07-31T01:02:57;16.90;99.90
9998;DHT22;5038;53.064;8.624;2023-07-31T01:05:36;17.00;99.90
9998;DHT22;5038;53.064;8.624;2023-07-31T01:08:12;16.90;99.90
9998;DHT22;5038;53.064;8.624;2023-07-31T01:10:48;17.00;99.90
9998;DHT22;5038;53.064;8.624;2023-07-31T01:13:18;16.90;99.90
9998;DHT22;5038;53.064;8.624;2023-07-31T01:15:47;16.90;99.90
9998;DHT22;5038;53.064;8.624;2023-07-31T01:18:15;17.00;99.90
9998;DHT22;5038;53.064;8.624;2023-07-31T01:20:51;16.90;99.90
9998;DHT22;5038;53.064;8.624;2023-07-31T01:23:38;16.90;99.90
9998;DHT22;5038;53.064;8.624;2023-07-31T01:26:18;17.00;99.90
9998;DHT22;5038;53.064;8.624;2023-07-31T01:28:55;16.90;99.90
9998;DHT22;5038;53.064;8.624;2023-07-31T01:31:25;16.90;99.90
9998;DHT22;5038;53.064;8.624;2023-07-31T01:34:00;16.90;99.90
9998;DHT22;5038;53.064;8.624;2023-07-31T01:36:30;16.90;99.90
9998;DHT22;5038;53.064;8.624;2023-07-31T01:38:59;16.90;99.90
9998;DHT22;5038;53.064;8.624;2023-07-31T01:41:29;16.90;99.90
9998;DHT22;5038;53.064;8.624;2023-07-31T01:43:57;16.90;99.90
9998;DHT22;5038;53.064;8.624;2023-07-31T01:46:25;16.80;99.90
9998;DHT22;5038;53.064;8.624;2023-07-31T01:48:55;16.80;99.90
9998;DHT22;5038;53.064;8.624;2023-07-31T01:51:24;16.80;99.90
9998;DHT22;5038;53.064;8.624;2023-07-31T01:53:52;16.80;99.90
9998;DHT22;5038;53.064;8.624;2023-07-31T01:56:20;16.70;99.90
9998;DHT22;5038;53.064;8.624;2023-07-31T01:58:49;16.70;99.90
9998;DHT22;5038;53.064;8.624;2023-07-31T02:01:17;16.70;99.90
9998;DHT22;5038;53.064;8.624;2023-07-31T02:03:45;16.60;99.90
9998;DHT22;5038;53.064;8.624;2023-07-31T02:06:14;16.60;99.90
9998;DHT22;5038;53.064;8.624;2023-07-31T02:08:42;16.60;99.90
9998;DHT22;5038;53.064;8.624;2023-07-31T02:11:12;16.50;99.90
9998;DHT22;5038;53.064;8.624;2023-07-31T02:13:40;16.50;99.90
9998;DHT22;5038;53.064;8.624;2023-07-31T02:16:10;16.50;99.90
9998;DHT22;5038;53.064;8.624;2023-07-31T02:18:38;16.50;99.90
9998;DHT22;5038;53.064;8.624;2023-07-31T02:21:06;16.50;99.90
9998;DHT22;5038;53.064;8.624;2023-07-31T02:23:34;16.40;99.90
9998;DHT22;5038;53.064;8.624;2023-07-31T02:26:02;16.40;99.90
9998;DHT22;5038;53.064;8.624;2023-07-31T02:28:31;16.40;99.90
9998;DHT22;5038;53.064;8.624;2023-07-31T02:30:59;16.40;99.90
9998;DHT22;5038;53.064;8.624;2023-07-31T02:33:28;16.40;99.90
9998;DHT22;5038;53.064;8.624;2023-07-31T02:35:58;16.40;99.90
9998;DHT22;5038;53.064;8.624;2023-07-31T02:38:26;16.30;99.90
9998;DHT22;5038;53.064;8.624;2023-07-31T02:40:54;16.30;99.90
9998;DHT22;5038;53.064;8.624;2023-07-31T02:43:22;16.30;99.90
9998;DHT22;5038;53.064;8.624;2023-07-31T02:45:51;16.30;99.90
9998;DHT22;5038;53.064;8.624;2023-07-31T02:48:19;16.30;99.90
9998;DHT22;5038;53.064;8.624;2023-07-31T02:50:49;16.30;99.90
9998;DHT22;5038;53.064;8.624;2023-07-31T02:53:17;16.20;99.90
9998;DHT22;5038;53.064;8.624;2023-07-31T02:55:45;16.20;99.90
9998;DHT22;5038;53.064;8.624;2023-07-31T02:58:13;16.20;99.90
9998;DHT22;5038;53.064;8.624;2023-07-31T03:00:42;16.20;99.90
9998;DHT22;5038;53.064;8.624;2023-07-31T03:03:11;16.20;99.90
9998;DHT22;5038;53.064;8.624;2023-07-31T03:05:39;16.20;99.90
9998;DHT22;5038;53.064;8.624;2023-07-31T03:08:08;16.20;99.90
9998;DHT22;5038;53.064;8.624;2023-07-31T03:10:36;16.20;99.90
9998;DHT22;5038;53.064;8.624;2023-07-31T03:13:04;16.20;99.90
9998;DHT22;5038;53.064;8.624;2023-07-31T03:15:33;16.20;99.90
9998;DHT22;5038;53.064;8.624;2023-07-31T03:18:01;16.20;99.90
9998;DHT22;5038;53.064;8.624;2023-07-31T03:20:29;16.10;99.90
9998;DHT22;5038;53.064;8.624;2023-07-31T03:22:58;16.20;99.90
9998;DHT22;5038;53.064;8.624;2023-07-31T03:25:27;16.20;99.90
9998;DHT22;5038;53.064;8.624;2023-07-31T03:27:55;16.10;99.90
9998;DHT22;5038;53.064;8.624;2023-07-31T03:30:23;16.20;99.90
9998;DHT22;5038;53.064;8.624;2023-07-31T03:32:51;16.20;99.90
9998;DHT22;5038;53.064;8.624;2023-07-31T03:35:20;16.20;99.90
9998;DHT22;5038;53.064;8.624;2023-07-31T03:37:48;16.20;99.90
9998;DHT22;5038;53.064;8.624;2023-07-31T03:40:16;16.20;99.90
9998;DHT22;5038;53.064;8.624;2023-07-31T03:42:45;16.10;99.90
9998;DHT22;5038;53.064;8.624;2023-07-31T03:45:13;16.10;99.90
9998;DHT22;5038;53.064;8.624;2023-07-31T03:47:41;16.10;99.90
9998;DHT22;5038;53.064;8.624;2023-07-31T03:50:10;16.20;99.90
9998;DHT22;5038;53.064;8.624;2023-07-31T03:52:38;16.20;99.90
9998;DHT22;5038;53.064;8.624;2023-07-31T03:55:06;16.20;99.90
9998;DHT22;5038;53.064;8.624;2023-07-31T03:57:34;16.10;99.90
9998;DHT22;5038;53.064;8.624;2023-07-31T04:00:05;16.10;99.90
9998;DHT22;5038;53.064;8.624;2023-07-31T04:02:38;16.10;99.90
9998;DHT22;5038;53.064;8.624;2023-07-31T04:05:07;16.10;99.90
9998;DHT22;5038;53.064;8.624;2023-07-31T04:07:36;16.10;99.90
9998;DHT22;5038;53.064;8.624;2023-07-31T04:10:05;16.10;99.90
9998;DHT22;5038;53.064;8.624;2023-07-31T04:12:33;16.10;99.90
9998;DHT22;5038;53.064;8.624;2023-07-31T04:15:01;16.10;99.90
9998;DHT22;5038;53.064;8.624;2023-07-31T04:17:30;16.10;99.90
9998;DHT22;5038;53.064;8.624;2023-07-31T04:19:59;16.10;99.90
9998;DHT22;5038;53.064;8.624;2023-07-31T04:22:27;16.10;99.90
9998;DHT22;5038;53.064;8.624;2023-07-31T04:24:56;16.10;99.90
9998;DHT22;5038;53.064;8.624;2023-07-31T04:27:24;16.20;99.90
9998;DHT22;5038;53.064;8.624;2023-07-31T04:29:52;16.10;99.90
9998;DHT22;5038;53.064;8.624;2023-07-31T04:32:20;16.10;99.90
9998;DHT22;5038;53.064;8.624;2023-07-31T04:34:50;16.10;99.90
9998;DHT22;5038;53.064;8.624;2023-07-31T04:37:18;16.10;99.90
9998;DHT22;5038;53.064;8.624;2023-07-31T04:39:46;16.10;99.90
9998;DHT22;5038;53.064;8.624;2023-07-31T04:42:14;16.10;99.90
9998;DHT22;5038;53.064;8.624;2023-07-31T04:44:42;16.10;99.90
9998;DHT22;5038;53.064;8.624;2023-07-31T04:47:10;16.10;99.90
9998;DHT22;5038;53.064;8.624;2023-07-31T04:49:38;16.10;99.90
9998;DHT22;5038;53.064;8.624;2023-07-31T04:52:07;16.10;99.90
9998;DHT22;5038;53.064;8.624;2023-07-31T04:54:35;16.10;99.90
9998;DHT22;5038;53.064;8.624;2023-07-31T04:57:05;16.10;99.90
9998;DHT22;5038;53.064;8.624;2023-07-31T04:59:33;16.10;99.90
9998;DHT22;5038;53.064;8.624;2023-07-31T05:02:02;16.10;99.90
9998;DHT22;5038;53.064;8.624;2023-07-31T05:04:30;16.10;99.90
9998;DHT22;5038;53.064;8.624;2023-07-31T05:06:58;16.10;99.90
9998;DHT22;5038;53.064;8.624;2023-07-31T05:09:28;16.10;99.90
9998;DHT22;5038;53.064;8.624;2023-07-31T05:11:56;16.10;99.90
9998;DHT22;5038;53.064;8.624;2023-07-31T05:14:24;16.10;99.90
9998;DHT22;5038;53.064;8.624;2023-07-31T05:16:52;16.10;99.90
9998;DHT22;5038;53.064;8.624;2023-07-31T05:19:20;16.10;99.90
9998;DHT22;5038;53.064;8.624;2023-07-31T05:21:48;16.10;99.90
9998;DHT22;5038;53.064;8.624;2023-07-31T05:24:16;16.10;99.90
9998;DHT22;5038;53.064;8.624;2023-07-31T05:26:46;16.10;99.90
9998;DHT22;5038;53.064;8.624;2023-07-31T05:29:14;16.10;99.90
9998;DHT22;5038;53.064;8.624;2023-07-31T05:31:43;16.10;99.90
9998;DHT22;5038;53.064;8.624;2023-07-31T05:34:11;16.10;99.90
9998;DHT22;5038;53.064;8.624;2023-07-31T05:36:39;16.10;99.90
9998;DHT22;5038;53.064;8.624;2023-07-31T05:39:08;16.10;99.90
9998;DHT22;5038;53.064;8.624;2023-07-31T05:41:36;16.10;99.90
9998;DHT22;5038;53.064;8.624;2023-07-31T05:44:05;16.20;99.90
9998;DHT22;5038;53.064;8.624;2023-07-31T05:46:34;16.20;99.90
9998;DHT22;5038;53.064;8.624;2023-07-31T05:49:02;16.20;99.90
9998;DHT22;5038;53.064;8.624;2023-07-31T05:51:30;16.20;99.90
9998;DHT22;5038;53.064;8.624;2023-07-31T05:53:58;16.20;99.90
9998;DHT22;5038;53.064;8.624;2023-07-31T05:56:26;16.20;99.90
9998;DHT22;5038;53.064;8.624;2023-07-31T05:58:55;16.20;99.90
9998;DHT22;5038;53.064;8.624;2023-07-31T06:01:25;16.20;99.90
9998;DHT22;5038;53.064;8.624;2023-07-31T06:03:53;16.30;99.90
9998;DHT22;5038;53.064;8.624;2023-07-31T06:06:21;16.30;99.90
9998;DHT22;5038;53.064;8.624;2023-07-31T06:08:49;16.20;99.90
9998;DHT22;5038;53.064;8.624;2023-07-31T06:11:19;16.30;99.90
9998;DHT22;5038;53.064;8.624;2023-07-31T06:13:47;16.30;99.90
9998;DHT22;5038;53.064;8.624;2023-07-31T06:16:16;16.30;99.90
9998;DHT22;5038;53.064;8.624;2023-07-31T06:18:46;16.30;99.90
9998;DHT22;5038;53.064;8.624;2023-07-31T06:21:14;16.30;99.90
9998;DHT22;5038;53.064;8.624;2023-07-31T06:23:42;16.30;99.90
9998;DHT22;5038;53.064;8.624;2023-07-31T06:26:11;16.30;99.90
9998;DHT22;5038;53.064;8.624;2023-07-31T06:28:39;16.30;99.90
9998;DHT22;5038;53.064;8.624;2023-07-31T06:31:07;16.40;99.90
9998;DHT22;5038;53.064;8.624;2023-07-31T06:33:35;16.40;99.90
9998;DHT22;5038;53.064;8.624;2023-07-31T06:36:05;16.40;99.90
9998;DHT22;5038;53.064;8.624;2023-07-31T06:38:33;16.40;99.90
9998;DHT22;5038;53.064;8.624;2023-07-31T06:41:01;16.40;99.90
9998;DHT22;5038;53.064;8.624;2023-07-31T06:43:30;16.40;99.90
9998;DHT22;5038;53.064;8.624;2023-07-31T06:46:04;16.40;99.90
9998;DHT22;5038;53.064;8.624;2023-07-31T06:48:32;16.40;99.90
9998;DHT22;5038;53.064;8.624;2023-07-31T06:51:01;16.40;99.90
9998;DHT22;5038;53.064;8.624;2023-07-31T06:53:30;16.50;99.90
9998;DHT22;5038;53.064;8.624;2023-07-31T06:55:58;16.50;99.90
9998;DHT22;5038;53.064;8.624;2023-07-31T06:58:26;16.50;99.90
9998;DHT22;5038;53.064;8.624;2023-07-31T07:00:54;16.60;99.90
9998;DHT22;5038;53.064;8.624;2023-07-31T07:03:22;16.50;99.90
9998;DHT22;5038;53.064;8.624;2023-07-31T07:05:50;16.60;99.90
9998;DHT22;5038;53.064;8.624;2023-07-31T07:08:19;16.60;99.90
9998;DHT22;5038;53.064;8.624;2023-07-31T07:10:48;16.60;99.90
9998;DHT22;5038;53.064;8.624;2023-07-31T07:13:16;16.60;99.90
9998;DHT22;5038;53.064;8.624;2023-07-31T07:15:48;16.60;99.90
9998;DHT22;5038;53.064;8.624;2023-07-31T07:18:16;16.70;99.90
9998;DHT22;5038;53.064;8.624;2023-07-31T07:20:49;16.70;99.90
9998;DHT22;5038;53.064;8.624;2023-07-31T07:23:17;16.70;99.90
9998;DHT22;5038;53.064;8.624;2023-07-31T07:25:46;16.80;99.90
9998;DHT22;5038;53.064;8.624;2023-07-31T07:28:16;16.70;99.90
9998;DHT22;5038;53.064;8.624;2023-07-31T07:30:44;16.70;99.90
9998;DHT22;5038;53.064;8.624;2023-07-31T07:33:12;16.70;99.90
9998;DHT22;5038;53.064;8.624;2023-07-31T07:35:40;16.70;99.90
9998;DHT22;5038;53.064;8.624;2023-07-31T07:38:08;16.80;99.90
9998;DHT22;5038;53.064;8.624;2023-07-31T07:40:38;16.80;99.90
9998;DHT22;5038;53.064;8.624;2023-07-31T07:43:07;16.80;99.90
9998;DHT22;5038;53.064;8.624;2023-07-31T07:45:37;16.80;99.90
9998;DHT22;5038;53.064;8.624;2023-07-31T07:48:05;16.80;99.90
9998;DHT22;5038;53.064;8.624;2023-07-31T07:50:33;16.80;99.90
9998;DHT22;5038;53.064;8.624;2023-07-31T07:53:01;16.90;99.90
9998;DHT22;5038;53.064;8.624;2023-07-31T07:55:29;16.80;99.90
9998;DHT22;5038;53.064;8.624;2023-07-31T07:57:57;16.90;99.90
9998;DHT22;5038;53.064;8.624;2023-07-31T08:00:25;16.90;99.90
9998;DHT22;5038;53.064;8.624;2023-07-31T08:02:55;16.90;99.90
9998;DHT22;5038;53.064;8.624;2023-07-31T08:05:25;16.90;99.90
9998;DHT22;5038;53.064;8.624;2023-07-31T08:07:53;17.00;99.90
9998;DHT22;5038;53.064;8.624;2023-07-31T08:10:21;17.00;99.90
9998;DHT22;5038;53.064;8.624;2023-07-31T08:12:49;17.00;99.90
9998;DHT22;5038;53.064;8.624;2023-07-31T08:15:17;17.00;99.90
9998;DHT22;5038;53.064;8.624;2023-07-31T08:17:45;17.00;99.90
9998;DHT22;5038;53.064;8.624;2023-07-31T08:20:15;17.10;99.90
9998;DHT22;5038;53.064;8.624;2023-07-31T08:22:43;17.10;99.90
9998;DHT22;5038;53.064;8.624;2023-07-31T08:25:11;17.10;99.90
9998;DHT22;5038;53.064;8.624;2023-07-31T08:27:43;17.10;99.90
9998;DHT22;5038;53.064;8.624;2023-07-31T08:30:11;17.10;99.90
9998;DHT22;5038;53.064;8.624;2023-07-31T08:32:40;17.10;99.90
9998;DHT22;5038;53.064;8.624;2023-07-31T08:35:08;17.10;99.90
9998;DHT22;5038;53.064;8.624;2023-07-31T08:37:38;17.20;99.90
9998;DHT22;5038;53.064;8.624;2023-07-31T08:40:07;17.20;99.90
9998;DHT22;5038;53.064;8.624;2023-07-31T08:42:43;17.20;99.90
9998;DHT22;5038;53.064;8.624;2023-07-31T08:45:14;17.20;99.90
9998;DHT22;5038;53.064;8.624;2023-07-31T08:47:45;17.20;99.90
9998;DHT22;5038;53.064;8.624;2023-07-31T08:50:16;17.30;99.90
9998;DHT22;5038;53.064;8.624;2023-07-31T08:52:47;17.30;99.90
9998;DHT22;5038;53.064;8.624;2023-07-31T08:55:15;17.30;99.90
9998;DHT22;5038;53.064;8.624;2023-07-31T08:57:43;17.40;99.90
9998;DHT22;5038;53.064;8.624;2023-07-31T09:00:13;17.40;99.90
9998;DHT22;5038;53.064;8.624;2023-07-31T09:02:45;17.40;99.90
9998;DHT22;5038;53.064;8.624;2023-07-31T09:05:14;17.40;99.90
9998;DHT22;5038;53.064;8.624;2023-07-31T09:07:47;17.50;99.90
9998;DHT22;5038;53.064;8.624;2023-07-31T09:10:15;17.50;99.90
9998;DHT22;5038;53.064;8.624;2023-07-31T09:12:43;17.50;99.90
9998;DHT22;5038;53.064;8.624;2023-07-31T09:15:12;17.50;99.90
9998;DHT22;5038;53.064;8.624;2023-07-31T09:17:59;17.50;99.90
9998;DHT22;5038;53.064;8.624;2023-07-31T09:20:28;17.60;99.90
9998;DHT22;5038;53.064;8.624;2023-07-31T09:23:05;17.60;99.90
9998;DHT22;5038;53.064;8.624;2023-07-31T09:25:34;17.60;99.90
9998;DHT22;5038;53.064;8.624;2023-07-31T09:28:04;17.60;99.90
9998;DHT22;5038;53.064;8.624;2023-07-31T09:30:45;17.60;99.90
9998;DHT22;5038;53.064;8.624;2023-07-31T09:33:15;17.60;99.90
9998;DHT22;5038;53.064;8.624;2023-07-31T09:35:43;17.60;99.90
9998;DHT22;5038;53.064;8.624;2023-07-31T09:38:14;17.60;99.90
9998;DHT22;5038;53.064;8.624;2023-07-31T09:40:44;17.60;99.90
9998;DHT22;5038;53.064;8.624;2023-07-31T09:43:13;17.60;99.90
9998;DHT22;5038;53.064;8.624;2023-07-31T09:45:45;17.60;99.90
9998;DHT22;5038;53.064;8.624;2023-07-31T09:48:15;17.60;99.90
9998;DHT22;5038;53.064;8.624;2023-07-31T09:50:45;17.60;99.90
9998;DHT22;5038;53.064;8.624;2023-07-31T09:53:16;17.70;99.90
9998;DHT22;5038;53.064;8.624;2023-07-31T09:55:44;17.70;99.90
9998;DHT22;5038;53.064;8.624;2023-07-31T09:58:12;17.70;99.90
9998;DHT22;5038;53.064;8.624;2023-07-31T10:00:41;17.80;99.90
9998;DHT22;5038;53.064;8.624;2023-07-31T10:03:10;17.80;99.90
9998;DHT22;5038;53.064;8.624;2023-07-31T10:05:41;17.80;99.90
9998;DHT22;5038;53.064;8.624;2023-07-31T10:08:10;17.90;99.90
9998;DHT22;5038;53.064;8.624;2023-07-31T10:10:42;17.90;99.90
9998;DHT22;5038;53.064;8.624;2023-07-31T10:13:11;18.00;99.90
9998;DHT22;5038;53.064;8.624;2023-07-31T10:15:39;18.00;99.90
9998;DHT22;5038;53.064;8.624;2023-07-31T10:18:10;18.00;99.90
9998;DHT22;5038;53.064;8.624;2023-07-31T10:20:40;18.10;99.90
9998;DHT22;5038;53.064;8.624;2023-07-31T10:23:09;18.10;99.90
9998;DHT22;5038;53.064;8.624;2023-07-31T10:25:38;18.10;99.90
9998;DHT22;5038;53.064;8.624;2023-07-31T10:28:09;18.20;99.90
9998;DHT22;5038;53.064;8.624;2023-07-31T10:30:38;18.30;99.90
9998;DHT22;5038;53.064;8.624;2023-07-31T10:33:07;18.30;99.90
9998;DHT22;5038;53.064;8.624;2023-07-31T10:35:36;18.30;99.90
9998;DHT22;5038;53.064;8.624;2023-07-31T10:38:10;18.30;99.90
9998;DHT22;5038;53.064;8.624;2023-07-31T10:40:39;18.30;99.90
9998;DHT22;5038;53.064;8.624;2023-07-31T10:43:09;18.30;99.90
9998;DHT22;5038;53.064;8.624;2023-07-31T10:45:39;18.40;99.90
9998;DHT22;5038;53.064;8.624;2023-07-31T10:48:13;18.40;99.90
9998;DHT22;5038;53.064;8.624;2023-07-31T10:50:47;18.40;99.90
9998;DHT22;5038;53.064;8.624;2023-07-31T10:53:23;18.40;99.90
9998;DHT22;5038;53.064;8.624;2023-07-31T10:55:51;18.40;99.90
9998;DHT22;5038;53.064;8.624;2023-07-31T10:58:21;18.50;99.90
9998;DHT22;5038;53.064;8.624;2023-07-31T11:00:49;18.50;99.90
9998;DHT22;5038;53.064;8.624;2023-07-31T11:03:19;18.60;99.90
9998;DHT22;5038;53.064;8.624;2023-07-31T11:05:51;18.60;99.90
9998;DHT22;5038;53.064;8.624;2023-07-31T11:08:22;18.70;99.90
9998;DHT22;5038;53.064;8.624;2023-07-31T11:11:04;18.70;99.90
9998;DHT22;5038;53.064;8.624;2023-07-31T11:13:40;18.80;99.90
9998;DHT22;5038;53.064;8.624;2023-07-31T11:16:09;18.80;99.90
9998;DHT22;5038;53.064;8.624;2023-07-31T11:18:39;18.90;99.90
9998;DHT22;5038;53.064;8.624;2023-07-31T11:21:07;18.90;99.90
9998;DHT22;5038;53.064;8.624;2023-07-31T11:23:37;18.90;99.90
9998;DHT22;5038;53.064;8.624;2023-07-31T11:26:06;18.90;99.90
9998;DHT22;5038;53.064;8.624;2023-07-31T11:28:35;18.90;99.90
9998;DHT22;5038;53.064;8.624;2023-07-31T11:31:04;18.90;99.90
9998;DHT22;5038;53.064;8.624;2023-07-31T11:33:32;19.00;99.90
9998;DHT22;5038;53.064;8.624;2023-07-31T11:36:00;18.90;99.90
9998;DHT22;5038;53.064;8.624;2023-07-31T11:38:30;18.90;99.90
9998;DHT22;5038;53.064;8.624;2023-07-31T11:40:59;19.00;99.90
9998;DHT22;5038;53.064;8.624;2023-07-31T11:43:31;19.00;99.90
9998;DHT22;5038;53.064;8.624;2023-07-31T11:46:01;19.00;99.90
9998;DHT22;5038;53.064;8.624;2023-07-31T11:48:31;19.10;99.90
9998;DHT22;5038;53.064;8.624;2023-07-31T11:51:03;19.10;99.90
9998;DHT22;5038;53.064;8.624;2023-07-31T11:53:33;19.10;99.90
9998;DHT22;5038;53.064;8.624;2023-07-31T11:56:03;19.10;99.90
9998;DHT22;5038;53.064;8.624;2023-07-31T11:58:33;19.10;99.90
9998;DHT22;5038;53.064;8.624;2023-07-31T12:01:03;19.10;99.90
9998;DHT22;5038;53.064;8.624;2023-07-31T12:03:32;19.10;99.90
9998;DHT22;5038;53.064;8.624;2023-07-31T12:06:00;19.10;99.90
9998;DHT22;5038;53.064;8.624;2023-07-31T12:08:29;19.10;99.90
9998;DHT22;5038;53.064;8.624;2023-07-31T12:11:02;19.20;99.90
9998;DHT22;5038;53.064;8.624;2023-07-31T12:13:32;19.20;99.90
9998;DHT22;5038;53.064;8.624;2023-07-31T12:16:03;19.20;99.90
9998;DHT22;5038;53.064;8.624;2023-07-31T12:18:34;19.20;99.90
9998;DHT22;5038;53.064;8.624;2023-07-31T12:21:05;19.20;99.90
9998;DHT22;5038;53.064;8.624;2023-07-31T12:23:35;19.20;99.90
9998;DHT22;5038;53.064;8.624;2023-07-31T12:26:04;19.20;99.90
9998;DHT22;5038;53.064;8.624;2023-07-31T12:28:35;19.20;99.90
9998;DHT22;5038;53.064;8.624;2023-07-31T12:31:05;19.20;99.90
9998;DHT22;5038;53.064;8.624;2023-07-31T12:33:35;19.20;99.90
9998;DHT22;5038;53.064;8.624;2023-07-31T12:36:07;19.20;99.90
9998;DHT22;5038;53.064;8.624;2023-07-31T12:38:36;19.20;99.90
9998;DHT22;5038;53.064;8.624;2023-07-31T12:41:04;19.20;99.90
9998;DHT22;5038;53.064;8.624;2023-07-31T12:43:34;19.20;99.90
9998;DHT22;5038;53.064;8.624;2023-07-31T12:46:02;19.30;99.90
9998;DHT22;5038;53.064;8.624;2023-07-31T12:48:32;19.30;99.90
9998;DHT22;5038;53.064;8.624;2023-07-31T12:51:00;19.40;99.90
9998;DHT22;5038;53.064;8.624;2023-07-31T12:53:29;19.40;99.90
9998;DHT22;5038;53.064;8.624;2023-07-31T12:55:57;19.40;99.90
9998;DHT22;5038;53.064;8.624;2023-07-31T12:58:25;19.50;99.90
9998;DHT22;5038;53.064;8.624;2023-07-31T13:00:54;19.50;99.90
9998;DHT22;5038;53.064;8.624;2023-07-31T13:03:22;19.50;99.90
9998;DHT22;5038;53.064;8.624;2023-07-31T13:05:51;19.50;99.90
9998;DHT22;5038;53.064;8.624;2023-07-31T13:08:20;19.50;99.90
9998;DHT22;5038;53.064;8.624;2023-07-31T13:10:48;19.50;99.90
9998;DHT22;5038;53.064;8.624;2023-07-31T13:13:16;19.50;99.90
9998;DHT22;5038;53.064;8.624;2023-07-31T13:15:44;19.50;99.90
9998;DHT22;5038;53.064;8.624;2023-07-31T13:18:12;19.50;99.90
9998;DHT22;5038;53.064;8.624;2023-07-31T13:20:41;19.50;99.90
9998;DHT22;5038;53.064;8.624;2023-07-31T13:23:10;19.50;99.90
9998;DHT22;5038;53.064;8.624;2023-07-31T13:25:38;19.50;99.90
9998;DHT22;5038;53.064;8.624;2023-07-31T13:28:06;19.60;99.90
9998;DHT22;5038;53.064;8.624;2023-07-31T13:30:34;19.60;99.90
9998;DHT22;5038;53.064;8.624;2023-07-31T13:33:02;19.60;99.90
9998;DHT22;5038;53.064;8.624;2023-07-31T13:35:31;19.60;99.90
9998;DHT22;5038;53.064;8.624;2023-07-31T13:37:59;19.60;99.90
9998;DHT22;5038;53.064;8.624;2023-07-31T13:40:28;19.60;99.90
9998;DHT22;5038;53.064;8.624;2023-07-31T13:42:56;19.60;99.90
9998;DHT22;5038;53.064;8.624;2023-07-31T13:45:24;19.50;99.90
9998;DHT22;5038;53.064;8.624;2023-07-31T13:47:53;19.50;99.90
9998;DHT22;5038;53.064;8.624;2023-07-31T13:50:21;19.50;99.90
9998;DHT22;5038;53.064;8.624;2023-07-31T13:52:49;19.50;99.90
9998;DHT22;5038;53.064;8.624;2023-07-31T13:55:17;19.50;99.90
9998;DHT22;5038;53.064;8.624;2023-07-31T13:57:47;19.50;99.90
9998;DHT22;5038;53.064;8.624;2023-07-31T14:00:15;19.50;99.90
9998;DHT22;5038;53.064;8.624;2023-07-31T14:02:43;19.50;99.90
9998;DHT22;5038;53.064;8.624;2023-07-31T14:05:12;19.50;99.90
9998;DHT22;5038;53.064;8.624;2023-07-31T14:07:40;19.50;99.90
9998;DHT22;5038;53.064;8.624;2023-07-31T14:10:09;19.50;99.90
9998;DHT22;5038;53.064;8.624;2023-07-31T14:12:37;19.50;99.90
9998;DHT22;5038;53.064;8.624;2023-07-31T14:15:10;19.50;99.90
9998;DHT22;5038;53.064;8.624;2023-07-31T14:17:39;19.50;99.90
9998;DHT22;5038;53.064;8.624;2023-07-31T14:20:08;19.50;99.90
9998;DHT22;5038;53.064;8.624;2023-07-31T14:22:37;19.50;99.90
9998;DHT22;5038;53.064;8.624;2023-07-31T14:25:06;19.50;99.90
9998;DHT22;5038;53.064;8.624;2023-07-31T14:27:37;19.50;99.90
9998;DHT22;5038;53.064;8.624;2023-07-31T14:30:06;19.50;99.90
9998;DHT22;5038;53.064;8.624;2023-07-31T14:32:36;19.50;99.90
9998;DHT22;5038;53.064;8.624;2023-07-31T14:35:05;19.50;99.90
9998;DHT22;5038;53.064;8.624;2023-07-31T14:37:37;19.50;99.90
9998;DHT22;5038;53.064;8.624;2023-07-31T14:40:06;19.50;99.90
9998;DHT22;5038;53.064;8.624;2023-07-31T14:42:35;19.50;99.90
9998;DHT22;5038;53.064;8.624;2023-07-31T14:45:04;19.50;99.90
9998;DHT22;5038;53.064;8.624;2023-07-31T14:47:33;19.50;99.90
9998;DHT22;5038;53.064;8.624;2023-07-31T14:50:03;19.50;99.90
9998;DHT22;5038;53.064;8.624;2023-07-31T14:52:32;19.50;99.90
9998;DHT22;5038;53.064;8.624;2023-07-31T14:55:00;19.50;99.90
9998;DHT22;5038;53.064;8.624;2023-07-31T14:57:28;19.50;99.90
9998;DHT22;5038;53.064;8.624;2023-07-31T14:59:56;19.50;99.90
9998;DHT22;5038;53.064;8.624;2023-07-31T15:02:25;19.50;99.90
9998;DHT22;5038;53.064;8.624;2023-07-31T15:04:54;19.40;99.90
9998;DHT22;5038;53.064;8.624;2023-07-31T15:07:23;19.40;99.90
9998;DHT22;5038;53.064;8.624;2023-07-31T15:09:51;19.40;99.90
9998;DHT22;5038;53.064;8.624;2023-07-31T15:12:19;19.40;99.90
9998;DHT22;5038;53.064;8.624;2023-07-31T15:14:48;19.30;99.90
9998;DHT22;5038;53.064;8.624;2023-07-31T15:17:16;19.30;99.90
9998;DHT22;5038;53.064;8.624;2023-07-31T15:19:44;19.30;99.90
9998;DHT22;5038;53.064;8.624;2023-07-31T15:22:13;19.30;99.90
9998;DHT22;5038;53.064;8.624;2023-07-31T15:24:42;19.20;99.90
9998;DHT22;5038;53.064;8.624;2023-07-31T15:27:10;19.20;99.90
9998;DHT22;5038;53.064;8.624;2023-07-31T15:29:38;19.20;99.90
9998;DHT22;5038;53.064;8.624;2023-07-31T15:32:07;19.20;99.90
9998;DHT22;5038;53.064;8.624;2023-07-31T15:34:35;19.20;99.90
9998;DHT22;5038;53.064;8.624;2023-07-31T15:37:03;19.30;99.90
9998;DHT22;5038;53.064;8.624;2023-07-31T15:39:31;19.20;99.90
9998;DHT22;5038;53.064;8.624;2023-07-31T15:42:01;19.20;99.90
9998;DHT22;5038;53.064;8.624;2023-07-31T15:44:29;19.30;99.90
9998;DHT22;5038;53.064;8.624;2023-07-31T15:46:57;19.30;99.90
9998;DHT22;5038;53.064;8.624;2023-07-31T15:49:25;19.30;99.90
9998;DHT22;5038;53.064;8.624;2023-07-31T15:51:54;19.30;99.90
9998;DHT22;5038;53.064;8.624;2023-07-31T15:54:22;19.30;99.90
9998;DHT22;5038;53.064;8.624;2023-07-31T15:56:50;19.30;99.90
9998;DHT22;5038;53.064;8.624;2023-07-31T15:59:19;19.30;99.90
9998;DHT22;5038;53.064;8.624;2023-07-31T16:01:47;19.30;99.90
9998;DHT22;5038;53.064;8.624;2023-07-31T16:04:15;19.30;99.90
9998;DHT22;5038;53.064;8.624;2023-07-31T16:06:43;19.30;99.90
9998;DHT22;5038;53.064;8.624;2023-07-31T16:09:12;19.40;99.90
9998;DHT22;5038;53.064;8.624;2023-07-31T16:11:40;19.40;99.90
9998;DHT22;5038;53.064;8.624;2023-07-31T16:14:10;19.40;99.90